createdAt,value
2023-01-19T00:00:36.069Z,999.88
2023-01-19T00:01:35.803Z,999.85
2023-01-19T00:02:35.621Z,999.87
2023-01-19T00:03:35.317Z,999.90
2023-01-19T00:04:35.570Z,999.84
2023-01-19T00:05:35.307Z,999.86
2023-01-19T00:06:35.640Z,999.86
2023-01-19T00:07:35.337Z,999.79
2023-01-19T00:08:55.609Z,999.84
2023-01-19T00:09:35.329Z,999.80
2023-01-19T00:10:35.619Z,999.79
2023-01-19T00:11:35.368Z,999.81
2023-01-19T00:12:35.631Z,999.81
2023-01-19T00:13:35.369Z,999.79
2023-01-19T00:14:35.656Z,999.82
2023-01-19T00:15:35.392Z,999.79
2023-01-19T00:16:35.675Z,999.80
2023-01-19T00:17:35.436Z,999.77
2023-01-19T00:18:55.725Z,999.85
2023-01-19T00:19:35.419Z,999.85
2023-01-19T00:20:35.179Z,999.86
2023-01-19T00:21:35.433Z,999.91
2023-01-19T00:22:35.193Z,999.94
2023-01-19T00:23:35.440Z,999.97
2023-01-19T00:24:35.223Z,999.94
2023-01-19T00:25:35.491Z,999.97
2023-01-19T00:26:35.286Z,999.95
2023-01-19T00:27:35.509Z,999.95
2023-01-19T00:28:55.304Z,999.99
2023-01-19T00:29:35.105Z,1000.02
2023-01-19T00:30:35.379Z,999.97
2023-01-19T00:31:35.174Z,1000.05
2023-01-19T00:32:35.410Z,1000.05
2023-01-19T00:33:35.183Z,1000.10
2023-01-19T00:34:35.461Z,1000.09
2023-01-19T00:35:35.249Z,1000.15
2023-01-19T00:36:35.496Z,1000.12
2023-01-19T00:37:35.246Z,1000.08
2023-01-19T00:38:55.725Z,1000.09
2023-01-19T00:39:35.302Z,1000.16
2023-01-19T00:40:35.046Z,1000.22
2023-01-19T00:41:35.310Z,1000.17
2023-01-19T00:42:35.105Z,1000.18
2023-01-19T00:43:35.336Z,1000.26
2023-01-19T00:44:35.103Z,1000.24
2023-01-19T00:45:35.409Z,1000.20
2023-01-19T00:46:35.141Z,1000.18
2023-01-19T00:47:35.378Z,1000.22
2023-01-19T00:48:56.610Z,1000.23
2023-01-19T00:49:35.107Z,1000.21
2023-01-19T00:50:35.102Z,1000.25
2023-01-19T00:51:34.985Z,1000.18
2023-01-19T00:52:35.254Z,1000.21
2023-01-19T00:53:35.078Z,1000.19
2023-01-19T00:54:35.052Z,1000.18
2023-01-19T00:55:35.276Z,1000.24
2023-01-19T00:56:35.079Z,1000.24
2023-01-19T00:57:35.048Z,1000.24
2023-01-19T00:58:56.021Z,1000.20
2023-01-19T00:59:35.124Z,1000.17
2023-01-19T01:00:35.066Z,1000.19
2023-01-19T01:01:45.472Z,1000.21
2023-01-19T01:02:36.219Z,1000.15
2023-01-19T01:03:35.176Z,1000.16
2023-01-19T01:04:35.024Z,1000.21
2023-01-19T01:05:34.790Z,1000.17
2023-01-19T01:06:35.128Z,1000.18
2023-01-19T01:07:35.292Z,1000.15
2023-01-19T01:08:56.402Z,1000.11
2023-01-19T01:09:34.809Z,1000.10
2023-01-19T01:10:35.109Z,1000.05
2023-01-19T01:11:34.940Z,1000.07
2023-01-19T01:12:34.766Z,1000.04
2023-01-19T01:13:35.056Z,1000.03
2023-01-19T01:14:34.849Z,1000.02
2023-01-19T01:15:34.702Z,1000.05
2023-01-19T01:16:35.213Z,1000.01
2023-01-19T01:17:35.043Z,1000.00
2023-01-19T01:18:54.997Z,1000.09
2023-01-19T01:19:34.646Z,1000.00
2023-01-19T01:20:35.157Z,1000.02
2023-01-19T01:21:35.019Z,1000.07
2023-01-19T01:22:35.168Z,1000.14
2023-01-19T01:23:35.082Z,1000.07
2023-01-19T01:24:35.028Z,1000.08
2023-01-19T01:25:34.829Z,1000.04
2023-01-19T01:26:34.581Z,1000.01
2023-01-19T01:27:34.858Z,999.96
2023-01-19T01:28:56.122Z,1000.03
2023-01-19T01:29:35.098Z,1000.01
2023-01-19T01:30:35.153Z,999.99
2023-01-19T01:31:35.120Z,1000.04
2023-01-19T01:32:35.038Z,1000.05
2023-01-19T01:33:41.177Z,1000.00
2023-01-19T01:34:35.563Z,1000.02
2023-01-19T01:35:34.836Z,1000.05
2023-01-19T01:36:34.568Z,1000.04
2023-01-19T01:37:34.840Z,1000.06
2023-01-19T01:38:56.073Z,1000.12
2023-01-19T01:39:34.398Z,1000.06
2023-01-19T01:40:34.623Z,1000.08
2023-01-19T01:41:34.376Z,1000.11
2023-01-19T01:42:34.641Z,1000.05
2023-01-19T01:43:34.400Z,1000.11
2023-01-19T01:44:34.681Z,1000.07
2023-01-19T01:45:34.523Z,1000.06
2023-01-19T01:46:34.702Z,1000.09
2023-01-19T01:47:34.453Z,1000.11
2023-01-19T01:48:55.423Z,1000.06
2023-01-19T01:49:34.516Z,1000.13
2023-01-19T01:50:34.245Z,1000.12
2023-01-19T01:51:34.506Z,1000.17
2023-01-19T01:52:34.775Z,1000.17
2023-01-19T01:53:34.597Z,1000.28
2023-01-19T01:54:34.274Z,1000.24
2023-01-19T01:55:34.542Z,1000.25
2023-01-19T01:56:34.290Z,1000.25
2023-01-19T01:57:34.550Z,1000.27
2023-01-19T01:58:55.031Z,1000.30
2023-01-19T01:59:34.596Z,1000.22
2023-01-19T02:00:34.333Z,1000.20
2023-01-19T02:01:34.729Z,1000.22
2023-01-19T02:02:34.322Z,1000.18
2023-01-19T02:03:34.643Z,1000.11
2023-01-19T02:04:34.342Z,1000.20
2023-01-19T02:05:34.115Z,1000.15
2023-01-19T02:06:34.345Z,1000.09
2023-01-19T02:07:34.117Z,1000.15
2023-01-19T02:08:55.855Z,1000.18
2023-01-19T02:09:34.182Z,1000.16
2023-01-19T02:10:34.403Z,1000.24
2023-01-19T02:11:34.179Z,1000.14
2023-01-19T02:12:34.407Z,1000.22
2023-01-19T02:13:34.184Z,1000.25
2023-01-19T02:14:34.425Z,1000.24
2023-01-19T02:15:34.209Z,1000.27
2023-01-19T02:16:34.467Z,1000.32
2023-01-19T02:17:34.191Z,1000.31
2023-01-19T02:18:55.921Z,1000.38
2023-01-19T02:19:34.218Z,1000.33
2023-01-19T02:20:33.957Z,1000.33
2023-01-19T02:21:34.236Z,1000.30
2023-01-19T02:22:33.975Z,1000.30
2023-01-19T02:23:34.227Z,1000.27
2023-01-19T02:24:33.978Z,1000.30
2023-01-19T02:25:34.240Z,1000.29
2023-01-19T02:26:33.995Z,1000.31
2023-01-19T02:27:34.245Z,1000.43
2023-01-19T02:28:55.476Z,1000.48
2023-01-19T02:29:34.276Z,1000.43
2023-01-19T02:30:34.082Z,1000.42
2023-01-19T02:31:34.323Z,1000.48
2023-01-19T02:32:34.116Z,1000.46
2023-01-19T02:33:33.846Z,1000.45
2023-01-19T02:34:34.097Z,1000.43
2023-01-19T02:35:33.861Z,1000.45
2023-01-19T02:36:34.115Z,1000.49
2023-01-19T02:37:33.928Z,1000.42
2023-01-19T02:38:54.540Z,1000.44
2023-01-19T02:39:33.890Z,1000.46
2023-01-19T02:40:34.130Z,1000.46
2023-01-19T02:41:33.891Z,1000.49
2023-01-19T02:42:34.199Z,1000.52
2023-01-19T02:43:33.892Z,1000.51
2023-01-19T02:44:34.134Z,1000.57
2023-01-19T02:45:33.908Z,1000.55
2023-01-19T02:46:34.131Z,1000.57
2023-01-19T02:47:33.900Z,1000.56
2023-01-19T02:48:55.642Z,1000.64
2023-01-19T02:49:33.951Z,1000.61
2023-01-19T02:50:33.698Z,1000.60
2023-01-19T02:51:33.962Z,1000.62
2023-01-19T02:52:33.710Z,1000.62
2023-01-19T02:53:33.987Z,1000.65
2023-01-19T02:54:33.716Z,1000.67
2023-01-19T02:55:33.968Z,1000.66
2023-01-19T02:56:33.717Z,1000.66
2023-01-19T02:57:33.975Z,1000.63
2023-01-19T02:58:54.440Z,1000.63
2023-01-19T02:59:34.031Z,1000.68
2023-01-19T03:00:33.785Z,1000.70
2023-01-19T03:01:34.144Z,1000.68
2023-01-19T03:02:33.807Z,1000.61
2023-01-19T03:03:33.553Z,1000.66
2023-01-19T03:04:33.802Z,1000.68
2023-01-19T03:05:33.578Z,1000.71
2023-01-19T03:06:33.820Z,1000.74
2023-01-19T03:07:33.580Z,1000.74
2023-01-19T03:08:54.535Z,1000.67
2023-01-19T03:09:33.663Z,1000.72
2023-01-19T03:10:33.907Z,1000.68
2023-01-19T03:11:33.719Z,1000.74
2023-01-19T03:12:33.463Z,1000.72
2023-01-19T03:13:33.702Z,1000.72
2023-01-19T03:14:33.435Z,1000.77
2023-01-19T03:15:33.754Z,1000.77
2023-01-19T03:16:33.520Z,1000.73
2023-01-19T03:17:33.776Z,1000.74
2023-01-19T03:18:55.120Z,1000.72
2023-01-19T03:19:33.469Z,1000.72
2023-01-19T03:20:33.756Z,1000.73
2023-01-19T03:21:33.582Z,1000.72
2023-01-19T03:22:33.858Z,1000.75
2023-01-19T03:23:33.654Z,1000.76
2023-01-19T03:24:33.373Z,1000.81
2023-01-19T03:25:33.671Z,1000.86
2023-01-19T03:26:33.457Z,1000.82
2023-01-19T03:27:33.741Z,1000.86
2023-01-19T03:28:55.176Z,1000.80
2023-01-19T03:29:33.533Z,1000.82
2023-01-19T03:30:33.293Z,1000.84
2023-01-19T03:31:33.538Z,1000.86
2023-01-19T03:32:33.349Z,1000.84
2023-01-19T03:33:33.611Z,1000.90
2023-01-19T03:34:33.403Z,1000.92
2023-01-19T03:35:33.703Z,1000.92
2023-01-19T03:36:33.463Z,1000.94
2023-01-19T03:37:33.236Z,1000.97
2023-01-19T03:38:54.066Z,1000.94
2023-01-19T03:39:33.370Z,1000.94
2023-01-19T03:40:33.606Z,1000.96
2023-01-19T03:41:33.421Z,1000.96
2023-01-19T03:42:33.213Z,1000.98
2023-01-19T03:43:33.492Z,1001.05
2023-01-19T03:44:33.264Z,1001.06
2023-01-19T03:45:33.594Z,1001.02
2023-01-19T03:46:33.361Z,1001.07
2023-01-19T03:47:33.196Z,1001.09
2023-01-19T03:48:54.406Z,1001.05
2023-01-19T03:49:33.232Z,1001.12
2023-01-19T03:50:33.527Z,1001.13
2023-01-19T03:51:33.284Z,1001.15
2023-01-19T03:52:33.148Z,1001.19
2023-01-19T03:53:33.383Z,1001.17
2023-01-19T03:54:33.186Z,1001.17
2023-01-19T03:55:33.479Z,1001.17
2023-01-19T03:56:33.285Z,1001.18
2023-01-19T03:57:33.012Z,1001.23
2023-01-19T03:58:56.277Z,1001.22
2023-01-19T03:59:33.085Z,1001.22
2023-01-19T04:00:33.366Z,1001.22
2023-01-19T04:01:33.176Z,1001.27
2023-01-19T04:02:33.380Z,1001.26
2023-01-19T04:03:33.111Z,1001.29
2023-01-19T04:04:33.380Z,1001.29
2023-01-19T04:05:33.135Z,1001.31
2023-01-19T04:06:33.372Z,1001.32
2023-01-19T04:07:33.171Z,1001.28
2023-01-19T04:08:54.882Z,1001.36
2023-01-19T04:09:33.174Z,1001.30
2023-01-19T04:10:32.935Z,1001.33
2023-01-19T04:11:33.197Z,1001.29
2023-01-19T04:12:32.935Z,1001.26
2023-01-19T04:13:33.202Z,1001.31
2023-01-19T04:14:32.949Z,1001.31
2023-01-19T04:15:33.201Z,1001.34
2023-01-19T04:16:32.958Z,1001.34
2023-01-19T04:17:33.219Z,1001.38
2023-01-19T04:18:53.600Z,1001.41
2023-01-19T04:19:33.269Z,1001.36
2023-01-19T04:20:33.001Z,1001.37
2023-01-19T04:21:32.764Z,1001.43
2023-01-19T04:22:33.005Z,1001.41
2023-01-19T04:23:32.762Z,1001.37
2023-01-19T04:24:33.013Z,1001.39
2023-01-19T04:25:32.754Z,1001.43
2023-01-19T04:26:33.006Z,1001.41
2023-01-19T04:27:32.753Z,1001.39
2023-01-19T04:28:54.491Z,1001.40
2023-01-19T04:29:32.794Z,1001.39
2023-01-19T04:30:33.053Z,1001.44
2023-01-19T04:31:32.886Z,1001.41
2023-01-19T04:32:33.049Z,1001.49
2023-01-19T04:33:32.818Z,1001.51
2023-01-19T04:34:33.073Z,1001.50
2023-01-19T04:35:32.841Z,1001.53
2023-01-19T04:36:33.101Z,1001.55
2023-01-19T04:37:32.849Z,1001.55
2023-01-19T04:38:54.594Z,1001.58
2023-01-19T04:39:32.901Z,1001.60
2023-01-19T04:40:32.644Z,1001.58
2023-01-19T04:41:32.906Z,1001.63
2023-01-19T04:42:32.673Z,1001.68
2023-01-19T04:43:32.948Z,1001.70
2023-01-19T04:44:32.688Z,1001.70
2023-01-19T04:45:32.940Z,1001.77
2023-01-19T04:46:32.720Z,1001.74
2023-01-19T04:47:32.951Z,1001.75
2023-01-19T04:48:54.245Z,1001.83
2023-01-19T04:49:32.559Z,1001.86
2023-01-19T04:50:32.793Z,1001.90
2023-01-19T04:51:32.534Z,1001.93
2023-01-19T04:52:32.796Z,1001.88
2023-01-19T04:53:32.562Z,1001.88
2023-01-19T04:54:32.844Z,1001.95
2023-01-19T04:55:32.576Z,1001.91
2023-01-19T04:56:32.796Z,1001.92
2023-01-19T04:57:32.554Z,1001.89
2023-01-19T04:58:53.622Z,1001.84
2023-01-19T04:59:32.617Z,1001.88
2023-01-19T05:00:32.352Z,1001.87
2023-01-19T05:01:32.717Z,1001.89
2023-01-19T05:02:32.422Z,1001.87
2023-01-19T05:03:32.631Z,1001.85
2023-01-19T05:04:32.378Z,1001.94
2023-01-19T05:05:32.637Z,1001.95
2023-01-19T05:06:32.405Z,1001.91
2023-01-19T05:07:32.649Z,1001.95
2023-01-19T05:08:53.890Z,1001.93
2023-01-19T05:09:32.748Z,1001.94
2023-01-19T05:10:32.485Z,1001.92
2023-01-19T05:11:33.699Z,1001.91
2023-01-19T05:12:33.967Z,1001.95
2023-01-19T05:13:33.827Z,1001.91
2023-01-19T05:14:34.039Z,1001.90
2023-01-19T05:15:33.826Z,1001.94
2023-01-19T05:16:33.128Z,1001.84
2023-01-19T05:17:34.027Z,1001.82
2023-01-19T05:18:52.327Z,1001.78
2023-01-19T05:19:34.092Z,1001.74
2023-01-19T05:20:33.870Z,1001.66
2023-01-19T05:21:32.892Z,1001.61
2023-01-19T05:22:33.115Z,1001.63
2023-01-19T05:23:33.734Z,1001.56
2023-01-19T05:24:34.012Z,1001.50
2023-01-19T05:25:33.832Z,1001.45
2023-01-19T05:26:33.614Z,1001.44
2023-01-19T05:27:32.474Z,1001.42
2023-01-19T05:28:52.222Z,1001.41
2023-01-19T05:29:33.951Z,1001.39
2023-01-19T05:30:33.779Z,1001.39
2023-01-19T05:31:34.200Z,1001.36
2023-01-19T05:32:33.891Z,1001.42
2023-01-19T05:33:32.234Z,1001.40
2023-01-19T05:34:33.137Z,1001.36
2023-01-19T05:35:36.249Z,1001.43
2023-01-19T05:36:32.801Z,1001.49
2023-01-19T05:37:33.847Z,1001.66
2023-01-19T05:38:52.192Z,1001.74
2023-01-19T05:39:33.122Z,1001.74
2023-01-19T05:40:33.675Z,1001.78
2023-01-19T05:41:33.441Z,1001.76
2023-01-19T05:42:33.723Z,1001.75
2023-01-19T05:43:33.504Z,1001.78
2023-01-19T05:44:33.783Z,1001.81
2023-01-19T05:45:32.624Z,1001.79
2023-01-19T05:46:32.507Z,1001.84
2023-01-19T05:47:32.431Z,1001.80
2023-01-19T05:48:52.074Z,1001.93
2023-01-19T05:49:32.354Z,1001.99
2023-01-19T05:50:32.628Z,1002.00
2023-01-19T05:51:33.403Z,1002.02
2023-01-19T05:52:32.278Z,1002.05
2023-01-19T05:53:33.460Z,1002.06
2023-01-19T05:54:33.756Z,1002.03
2023-01-19T05:55:33.535Z,1002.06
2023-01-19T05:56:32.622Z,1001.97
2023-01-19T05:57:33.635Z,1001.87
2023-01-19T05:58:51.957Z,1001.80
2023-01-19T05:59:32.243Z,1001.70
2023-01-19T06:00:32.328Z,1001.72
2023-01-19T06:01:33.214Z,1001.77
2023-01-19T06:02:32.640Z,1001.74
2023-01-19T06:03:32.401Z,1001.79
2023-01-19T06:04:31.827Z,1001.80
2023-01-19T06:05:33.588Z,1001.82
2023-01-19T06:06:33.357Z,1001.79
2023-01-19T06:07:32.627Z,1001.75
2023-01-19T06:08:51.967Z,1001.85
2023-01-19T06:09:33.167Z,1001.84
2023-01-19T06:10:33.469Z,1001.86
2023-01-19T06:11:33.252Z,1001.86
2023-01-19T06:12:33.564Z,1001.90
2023-01-19T06:13:32.829Z,1001.85
2023-01-19T06:14:32.639Z,1001.90
2023-01-19T06:15:33.399Z,1001.92
2023-01-19T06:16:33.242Z,1001.98
2023-01-19T06:17:32.973Z,1001.99
2023-01-19T06:18:51.838Z,1002.04
2023-01-19T06:19:32.656Z,1002.02
2023-01-19T06:20:33.345Z,1002.00
2023-01-19T06:21:33.116Z,1002.04
2023-01-19T06:22:33.411Z,1002.00
2023-01-19T06:23:33.185Z,1002.01
2023-01-19T06:24:33.470Z,1002.04
2023-01-19T06:25:33.242Z,1001.98
2023-01-19T06:26:33.039Z,1001.97
2023-01-19T06:27:32.547Z,1002.03
2023-01-19T06:28:52.093Z,1001.97
2023-01-19T06:29:32.877Z,1002.00
2023-01-19T06:30:32.248Z,1001.97
2023-01-19T06:31:32.086Z,1002.05
2023-01-19T06:32:31.724Z,1002.09
2023-01-19T06:33:31.472Z,1002.09
2023-01-19T06:34:31.745Z,1002.10
2023-01-19T06:35:31.487Z,1002.11
2023-01-19T06:36:31.746Z,1002.15
2023-01-19T06:37:31.495Z,1002.16
2023-01-19T06:38:50.971Z,1002.13
2023-01-19T06:39:30.910Z,1002.15
2023-01-19T06:40:30.889Z,1002.16
2023-01-19T06:41:30.865Z,1002.11
2023-01-19T06:42:31.688Z,1002.13
2023-01-19T06:43:31.407Z,1002.11
2023-01-19T06:44:31.706Z,1002.19
2023-01-19T06:45:31.465Z,1002.20
2023-01-19T06:46:31.695Z,1002.19
2023-01-19T06:47:31.435Z,1002.16
2023-01-19T06:48:52.179Z,1002.20
2023-01-19T06:49:31.535Z,1002.25
2023-01-19T06:50:31.753Z,1002.22
2023-01-19T06:51:31.493Z,1002.24
2023-01-19T06:52:31.748Z,1002.21
2023-01-19T06:53:30.750Z,1002.25
2023-01-19T06:54:31.167Z,1002.30
2023-01-19T06:55:33.186Z,1002.29
2023-01-19T06:56:32.667Z,1002.32
2023-01-19T06:57:32.824Z,1002.33
2023-01-19T06:58:51.659Z,1002.37
2023-01-19T06:59:32.966Z,1002.37
2023-01-19T07:00:32.154Z,1002.40
2023-01-19T07:01:33.187Z,1002.39
2023-01-19T07:02:32.440Z,1002.41
2023-01-19T07:03:32.160Z,1002.43
2023-01-19T07:04:32.139Z,1002.42
2023-01-19T07:05:32.202Z,1002.48
2023-01-19T07:06:31.186Z,1002.46
2023-01-19T07:07:32.167Z,1002.45
2023-01-19T07:08:50.692Z,1002.56
2023-01-19T07:09:31.603Z,1002.58
2023-01-19T07:11:25.462Z,1002.55
2023-01-19T07:11:31.786Z,1002.52
2023-01-19T07:12:32.068Z,1002.54
2023-01-19T07:13:32.029Z,1002.52
2023-01-19T07:14:32.060Z,1002.52
2023-01-19T07:15:32.077Z,1002.49
2023-01-19T07:16:31.646Z,1002.48
2023-01-19T07:17:31.180Z,1002.44
2023-01-19T07:18:51.397Z,1002.38
2023-01-19T07:19:32.623Z,1002.37
2023-01-19T07:20:32.992Z,1002.44
2023-01-19T07:21:32.838Z,1002.43
2023-01-19T07:22:32.697Z,1002.49
2023-01-19T07:23:32.612Z,1002.48
2023-01-19T07:24:32.886Z,1002.47
2023-01-19T07:25:31.190Z,1002.52
2023-01-19T07:26:32.928Z,1002.56
2023-01-19T07:27:32.834Z,1002.58
2023-01-19T07:28:51.048Z,1002.65
2023-01-19T07:29:32.952Z,1002.57
2023-01-19T07:30:31.832Z,1002.61
2023-01-19T07:31:32.008Z,1002.68
2023-01-19T07:32:32.723Z,1002.65
2023-01-19T07:33:32.505Z,1002.68
2023-01-19T07:34:32.194Z,1002.66
2023-01-19T07:35:32.110Z,1002.65
2023-01-19T07:36:32.500Z,1002.61
2023-01-19T07:37:32.888Z,1002.73
2023-01-19T07:38:51.139Z,1002.74
2023-01-19T07:39:31.707Z,1002.81
2023-01-19T07:40:32.768Z,1002.77
2023-01-19T07:41:32.518Z,1002.77
2023-01-19T07:42:32.303Z,1002.78
2023-01-19T07:43:31.835Z,1002.78
2023-01-19T07:44:32.457Z,1002.83
2023-01-19T07:45:31.702Z,1002.84
2023-01-19T07:46:32.593Z,1002.81
2023-01-19T07:47:32.378Z,1002.87
2023-01-19T07:48:51.206Z,1002.83
2023-01-19T07:49:32.443Z,1002.87
2023-01-19T07:50:30.791Z,1002.90
2023-01-19T07:51:31.700Z,1002.86
2023-01-19T07:52:32.437Z,1002.87
2023-01-19T07:53:32.299Z,1002.96
2023-01-19T07:54:32.111Z,1002.98
2023-01-19T07:55:32.446Z,1002.99
2023-01-19T07:56:32.815Z,1002.97
2023-01-19T07:57:31.071Z,1002.98
2023-01-19T07:58:52.337Z,1003.04
2023-01-19T07:59:30.627Z,1003.03
2023-01-19T08:00:30.856Z,1003.01
2023-01-19T08:01:30.676Z,1003.04
2023-01-19T08:02:30.867Z,1003.04
2023-01-19T08:03:30.619Z,1003.09
2023-01-19T08:04:30.866Z,1003.08
2023-01-19T08:05:30.634Z,1003.04
2023-01-19T08:06:30.869Z,1003.09
2023-01-19T08:07:30.642Z,1003.08
2023-01-19T08:08:51.602Z,1003.08
2023-01-19T08:09:30.712Z,1003.13
2023-01-19T08:10:30.972Z,1003.17
2023-01-19T08:11:30.745Z,1003.10
2023-01-19T08:12:30.482Z,1003.15
2023-01-19T08:13:30.733Z,1003.16
2023-01-19T08:14:30.982Z,1003.18
2023-01-19T08:15:30.797Z,1003.22
2023-01-19T08:16:30.504Z,1003.19
2023-01-19T08:17:30.762Z,1003.25
2023-01-19T08:18:51.984Z,1003.22
2023-01-19T08:19:30.791Z,1003.23
2023-01-19T08:20:30.543Z,1003.25
2023-01-19T08:21:30.824Z,1003.30
2023-01-19T08:22:30.544Z,1003.32
2023-01-19T08:23:30.814Z,1003.32
2023-01-19T08:24:30.584Z,1003.38
2023-01-19T08:25:30.358Z,1003.35
2023-01-19T08:26:30.624Z,1003.32
2023-01-19T08:27:30.366Z,1003.36
2023-01-19T08:28:52.093Z,1003.38
2023-01-19T08:29:30.414Z,1003.41
2023-01-19T08:30:30.691Z,1003.42
2023-01-19T08:31:30.570Z,1003.44
2023-01-19T08:32:30.755Z,1003.44
2023-01-19T08:33:30.465Z,1003.50
2023-01-19T08:34:30.740Z,1003.54
2023-01-19T08:35:30.463Z,1003.51
2023-01-19T08:36:30.763Z,1003.49
2023-01-19T08:37:31.024Z,1003.44
2023-01-19T08:38:51.254Z,1003.45
2023-01-19T08:39:30.625Z,1003.54
2023-01-19T08:40:30.403Z,1003.49
2023-01-19T08:41:30.661Z,1003.55
2023-01-19T08:42:30.409Z,1003.53
2023-01-19T08:43:30.656Z,1003.51
2023-01-19T08:44:30.443Z,1003.60
2023-01-19T08:45:30.194Z,1003.58
2023-01-19T08:46:30.468Z,1003.58
2023-01-19T08:47:30.236Z,1003.58
2023-01-19T08:48:51.193Z,1003.57
2023-01-19T08:49:30.288Z,1003.64
2023-01-19T08:50:30.561Z,1003.61
2023-01-19T08:51:31.273Z,1003.68
2023-01-19T08:52:31.625Z,1003.63
2023-01-19T08:53:31.899Z,1003.60
2023-01-19T08:54:31.410Z,1003.65
2023-01-19T08:55:31.597Z,1003.67
2023-01-19T08:56:31.289Z,1003.67
2023-01-19T08:57:31.258Z,1003.68
2023-01-19T08:59:03.531Z,1003.68
2023-01-19T08:59:33.029Z,1003.65
2023-01-19T09:00:31.806Z,1003.69
2023-01-19T09:01:30.911Z,1003.74
2023-01-19T09:02:31.541Z,1003.66
2023-01-19T09:03:31.233Z,1003.69
2023-01-19T09:04:30.750Z,1003.69
2023-01-19T09:05:31.399Z,1003.75
2023-01-19T09:06:31.716Z,1003.77
2023-01-19T09:07:32.515Z,1003.79
2023-01-19T09:08:50.325Z,1003.83
2023-01-19T09:09:31.531Z,1003.81
2023-01-19T09:10:31.874Z,1003.80
2023-01-19T09:11:31.696Z,1003.85
2023-01-19T09:12:31.547Z,1003.84
2023-01-19T09:13:30.733Z,1003.81
2023-01-19T09:14:30.878Z,1003.86
2023-01-19T09:15:29.973Z,1003.83
2023-01-19T09:16:30.226Z,1003.92
2023-01-19T09:17:29.972Z,1003.90
2023-01-19T09:18:50.242Z,1003.86
2023-01-19T09:19:29.983Z,1003.87
2023-01-19T09:20:30.256Z,1003.88
2023-01-19T09:21:30.000Z,1003.91
2023-01-19T09:22:30.253Z,1003.85
2023-01-19T09:23:30.002Z,1003.92
2023-01-19T09:24:30.326Z,1003.93
2023-01-19T09:25:30.070Z,1003.95
2023-01-19T09:26:32.205Z,1003.95
2023-01-19T09:27:30.094Z,1003.95
2023-01-19T09:28:49.869Z,1003.93
2023-01-19T09:29:30.093Z,1003.99
2023-01-19T09:30:29.863Z,1003.96
2023-01-19T09:31:30.253Z,1003.94
2023-01-19T09:32:29.860Z,1003.93
2023-01-19T09:33:30.097Z,1003.95
2023-01-19T09:34:29.894Z,1003.96
2023-01-19T09:35:30.154Z,1003.93
2023-01-19T09:36:29.901Z,1003.93
2023-01-19T09:37:29.649Z,1004.00
2023-01-19T09:38:51.384Z,1004.00
2023-01-19T09:39:29.724Z,1004.01
2023-01-19T09:40:29.987Z,1003.97
2023-01-19T09:41:29.728Z,1004.04
2023-01-19T09:42:29.975Z,1004.04
2023-01-19T09:43:29.763Z,1004.08
2023-01-19T09:44:29.999Z,1004.05
2023-01-19T09:45:29.768Z,1004.11
2023-01-19T09:46:30.044Z,1004.08
2023-01-19T09:47:29.787Z,1004.10
2023-01-19T09:48:50.760Z,1004.11
2023-01-19T09:49:29.907Z,1004.16
2023-01-19T09:50:29.652Z,1004.15
2023-01-19T09:51:29.918Z,1004.09
2023-01-19T09:52:29.646Z,1004.18
2023-01-19T09:53:29.925Z,1004.11
2023-01-19T09:54:29.667Z,1004.07
2023-01-19T09:55:29.933Z,1004.10
2023-01-19T09:56:29.704Z,1004.18
2023-01-19T09:57:29.444Z,1004.10
2023-01-19T09:58:50.324Z,1004.12
2023-01-19T09:59:29.536Z,1004.09
2023-01-19T10:00:29.807Z,1004.08
2023-01-19T10:01:29.615Z,1004.10
2023-01-19T10:02:29.804Z,1004.07
2023-01-19T10:03:29.565Z,1004.09
2023-01-19T10:04:29.821Z,1004.15
2023-01-19T10:05:29.554Z,1004.11
2023-01-19T10:06:29.795Z,1004.10
2023-01-19T10:07:29.639Z,1004.15
2023-01-19T10:08:51.319Z,1004.09
2023-01-19T10:09:29.625Z,1004.09
2023-01-19T10:10:29.381Z,1004.06
2023-01-19T10:11:41.885Z,1004.13
2023-01-19T10:12:30.384Z,1004.08
2023-01-19T10:13:28.797Z,1004.08
2023-01-19T10:14:28.796Z,1004.09
2023-01-19T10:15:29.752Z,1004.06
2023-01-19T10:16:29.576Z,1004.15
2023-01-19T10:17:29.338Z,1004.15
2023-01-19T10:18:50.285Z,1004.12
2023-01-19T10:19:29.423Z,1004.19
2023-01-19T10:20:29.659Z,1004.19
2023-01-19T10:21:29.429Z,1004.19
2023-01-19T10:22:29.660Z,1004.22
2023-01-19T10:23:29.442Z,1004.31
2023-01-19T10:24:29.212Z,1004.24
2023-01-19T10:25:29.470Z,1004.26
2023-01-19T10:26:29.713Z,1004.24
2023-01-19T10:27:29.493Z,1004.24
2023-01-19T10:28:50.846Z,1004.24
2023-01-19T10:29:29.639Z,1004.27
2023-01-19T10:30:29.388Z,1004.28
2023-01-19T10:31:29.330Z,1004.26
2023-01-19T10:32:29.431Z,1004.27
2023-01-19T10:33:29.192Z,1004.27
2023-01-19T10:34:29.470Z,1004.24
2023-01-19T10:35:29.229Z,1004.21
2023-01-19T10:36:29.491Z,1004.26
2023-01-19T10:37:29.219Z,1004.26
2023-01-19T10:38:49.810Z,1004.32
2023-01-19T10:39:29.355Z,1004.32
2023-01-19T10:40:29.094Z,1004.27
2023-01-19T10:41:29.314Z,1004.31
2023-01-19T10:42:29.082Z,1004.29
2023-01-19T10:43:29.310Z,1004.28
2023-01-19T10:44:29.132Z,1004.31
2023-01-19T10:45:29.437Z,1004.30
2023-01-19T10:46:29.092Z,1004.26
2023-01-19T10:47:29.372Z,1004.28
2023-01-19T10:48:50.623Z,1004.28
2023-01-19T10:49:29.428Z,1004.27
2023-01-19T10:50:31.156Z,1004.26
2023-01-19T10:51:28.916Z,1004.34
2023-01-19T10:52:29.231Z,1004.23
2023-01-19T10:53:29.206Z,1004.30
2023-01-19T10:54:29.266Z,1004.23
2023-01-19T10:55:29.794Z,1004.29
2023-01-19T10:56:30.413Z,1004.27
2023-01-19T10:57:30.426Z,1004.12
2023-01-19T10:58:50.730Z,1004.18
2023-01-19T10:59:30.488Z,1004.13
2023-01-19T11:00:30.763Z,1004.11
2023-01-19T11:01:29.188Z,1004.23
2023-01-19T11:02:29.110Z,1004.17
2023-01-19T11:03:29.197Z,1004.17
2023-01-19T11:04:28.952Z,1004.16
2023-01-19T11:05:29.118Z,1004.24
2023-01-19T11:06:28.873Z,1004.28
2023-01-19T11:07:29.162Z,1004.27
2023-01-19T11:08:50.404Z,1004.17
2023-01-19T11:09:29.230Z,1004.17
2023-01-19T11:10:28.978Z,1004.19
2023-01-19T11:11:28.746Z,1004.28
2023-01-19T11:12:28.992Z,1004.29
2023-01-19T11:14:40.744Z,1004.32
2023-01-19T11:15:00.965Z,1004.30
2023-01-19T11:15:46.398Z,1004.11
2023-01-19T11:16:47.635Z,1004.19
2023-01-19T11:17:46.426Z,1004.17
2023-01-19T11:19:07.656Z,1004.11
2023-01-19T11:19:47.151Z,1004.21
2023-01-19T11:20:46.298Z,1004.14
2023-01-19T11:21:45.995Z,1004.16
2023-01-19T11:22:48.568Z,1004.13
2023-01-19T11:23:46.032Z,1004.19
2023-01-19T11:24:47.727Z,1004.20
2023-01-19T11:25:47.503Z,1004.24
2023-01-19T11:26:47.755Z,1004.16
2023-01-19T11:27:47.516Z,1004.17
2023-01-19T11:29:07.786Z,1004.16
2023-01-19T11:29:46.786Z,1004.19
2023-01-19T11:30:47.820Z,1004.19
2023-01-19T11:31:46.241Z,1004.17
2023-01-19T11:32:47.376Z,1004.19
2023-01-19T11:33:49.785Z,1004.19
2023-01-19T11:34:46.809Z,1004.09
2023-01-19T11:35:46.242Z,1004.09
2023-01-19T11:36:45.997Z,1004.11
2023-01-19T11:37:57.730Z,1004.25
2023-01-19T11:39:07.549Z,1004.07
2023-01-19T11:40:05.808Z,1004.30
2023-01-19T11:41:29.178Z,1004.22
2023-01-19T11:42:17.439Z,1004.21
2023-01-19T11:47:39.191Z,1004.22
2023-01-19T11:47:47.829Z,1004.10
2023-01-19T11:51:08.189Z,1004.09
2023-01-19T11:51:18.303Z,1003.99
2023-01-19T11:55:08.528Z,1004.13
2023-01-19T12:00:46.314Z,1004.10
2023-01-19T12:01:17.299Z,1004.01
2023-01-19T12:02:16.894Z,1004.00
2023-01-19T12:02:52.019Z,1003.99
2023-01-19T12:03:54.823Z,1003.91
2023-01-19T12:04:53.237Z,1004.00
2023-01-19T12:05:52.332Z,1003.93
2023-01-19T12:06:53.325Z,1003.87
2023-01-19T12:07:53.099Z,1003.89
2023-01-19T12:08:53.398Z,1003.96
2023-01-19T12:09:52.694Z,1003.94
2023-01-19T12:11:12.036Z,1003.98
2023-01-19T12:11:53.331Z,1003.96
2023-01-19T12:12:53.103Z,1003.98
2023-01-19T12:13:53.911Z,1003.96
2023-01-19T12:14:52.733Z,1003.97
2023-01-19T12:15:52.261Z,1003.99
2023-01-19T12:16:52.323Z,1004.04
2023-01-19T12:17:53.145Z,1003.97
2023-01-19T12:18:51.701Z,1004.08